Time;durP1;ratioP1;P1;durP2;ratioP2;P2;SDS_P1;SDS_P2;PMS_P1;PMS_P2;Temp;Humidity;BMP_temperature;BMP_pressure;BME280_temperature;BME280_humidity;BME280_pressure;Samples;Min_cycle;Max_cycle;Signal;HPM_P1;HPM_P2
2022/04/24 00:00:22;;;;;;;19.55;15.30;;;;;;;9.38;100.00;100387.70;1769892;81;21065;-80
2022/04/24 00:02:51;;;;;;;18.57;16.57;;;;;;;9.37;100.00;100363.13;1770030;80;21010;-79
2022/04/24 00:05:18;;;;;;;18.15;16.27;;;;;;;9.36;100.00;100371.38;1769759;80;20994;-80
2022/04/24 00:07:47;;;;;;;17.82;15.88;;;;;;;9.35;100.00;100411.30;1769886;81;20983;-82
2022/04/24 00:10:14;;;;;;;16.85;15.13;;;;;;;9.36;100.00;100430.34;1770049;81;21248;-80
2022/04/24 00:12:45;;;;;;;16.97;14.80;;;;;;;9.37;100.00;100438.50;1769642;81;21006;-82
2022/04/24 00:15:13;;;;;;;18.52;14.87;;;;;;;9.38;100.00;100437.53;1720298;82;21822;-82
2022/04/24 00:17:42;;;;;;;16.35;14.70;;;;;;;9.39;100.00;100430.94;1769539;81;21471;-81
2022/04/24 00:20:11;;;;;;;17.75;15.58;;;;;;;9.41;100.00;100412.63;1720724;83;22255;-80
2022/04/24 00:22:40;;;;;;;17.32;15.65;;;;;;;9.42;100.00;100407.30;1770064;81;21066;-84
2022/04/24 00:25:09;;;;;;;17.92;16.12;;;;;;;9.44;100.00;100413.23;1769889;80;21065;-83
2022/04/24 00:27:38;;;;;;;17.48;15.68;;;;;;;9.44;100.00;100405.43;1769947;81;20999;-81
2022/04/24 00:30:07;;;;;;;17.05;15.35;;;;;;;9.44;100.00;100400.23;1769901;81;20998;-81
2022/04/24 00:32:35;;;;;;;18.37;15.75;;;;;;;9.45;100.00;100385.00;1769892;80;21570;-81
2022/04/24 00:35:04;;;;;;;16.48;14.95;;;;;;;9.46;100.00;100374.97;1769905;81;21065;-81
2022/04/24 00:37:33;;;;;;;16.30;14.63;;;;;;;9.49;100.00;100392.58;1769887;81;21105;-82
2022/04/24 00:40:02;;;;;;;15.53;13.93;;;;;;;9.50;100.00;100392.91;1769606;81;21074;-81
2022/04/24 00:42:30;;;;;;;15.43;13.88;;;;;;;9.52;100.00;100404.03;1763497;81;21039;-81
2022/04/24 00:44:57;;;;;;;15.68;14.15;;;;;;;9.53;100.00;100387.50;1761992;81;21031;-81
2022/04/24 00:47:36;;;;;;;15.53;13.68;;;;;;;9.55;100.00;100391.63;1712347;82;21618;-85
2022/04/24 00:50:06;;;;;;;16.23;14.55;;;;;;;9.59;100.00;100403.48;1704769;83;21034;-81
2022/04/24 00:52:33;;;;;;;15.35;13.75;;;;;;;9.62;100.00;100408.91;1704668;83;21548;-81
2022/04/24 00:55:03;;;;;;;16.48;14.75;;;;;;;9.63;100.00;100404.89;1704375;83;21114;-81
2022/04/24 00:57:31;;;;;;;16.67;14.95;;;;;;;9.66;100.00;100408.22;1704660;83;21512;-81
2022/04/24 00:59:58;;;;;;;15.90;14.30;;;;;;;9.67;100.00;100408.09;1704617;83;21243;-82
2022/04/24 01:02:25;;;;;;;17.25;15.45;;;;;;;9.69;100.00;100410.59;1704811;84;21928;-81
2022/04/24 01:04:54;;;;;;;16.48;14.93;;;;;;;9.69;100.00;100401.01;1704649;84;21035;-82
2022/04/24 01:07:23;;;;;;;16.37;14.78;;;;;;;9.67;100.00;100393.79;1704809;83;21083;-80
2022/04/24 01:09:51;;;;;;;17.90;15.85;;;;;;;9.67;100.00;100392.48;1704479;83;21011;-80
2022/04/24 01:12:20;;;;;;;17.00;15.28;;;;;;;9.65;100.00;100386.60;1705096;83;22227;-80
2022/04/24 01:14:47;;;;;;;16.93;15.18;;;;;;;9.64;100.00;100388.84;1705271;83;21481;-80
2022/04/24 01:17:15;;;;;;;16.32;14.55;;;;;;;9.63;100.00;100384.58;1704910;84;21623;-79
2022/04/24 01:19:44;;;;;;;16.50;14.78;;;;;;;9.62;100.00;100384.22;1704651;83;21635;-85
2022/04/24 01:22:13;;;;;;;15.88;14.20;;;;;;;9.59;100.00;100382.68;1704760;83;21051;-80
2022/04/24 01:24:40;;;;;;;16.70;14.95;;;;;;;9.58;100.00;100373.22;1704910;84;21136;-79
2022/04/24 01:27:08;;;;;;;16.48;14.75;;;;;;;9.56;100.00;100375.09;1704751;84;21129;-79
2022/04/24 01:29:38;;;;;;;17.02;15.28;;;;;;;9.55;100.00;100377.34;1704661;84;21553;-79
2022/04/24 01:32:07;;;;;;;16.97;15.28;;;;;;;9.54;100.00;100377.46;1703445;83;21030;-79
2022/04/24 01:34:34;;;;;;;15.88;14.30;;;;;;;9.51;100.00;100378.52;1704858;83;21161;-78
2022/04/24 01:37:04;;;;;;;15.85;14.18;;;;;;;9.51;100.00;100377.22;1704633;84;21615;-78
2022/04/24 01:39:32;;;;;;;15.28;13.80;;;;;;;9.50;100.00;100376.86;1704383;83;21046;-78
2022/04/24 01:42:00;;;;;;;16.50;14.80;;;;;;;9.52;100.00;100378.04;1706665;83;21012;-78
2022/04/24 01:44:27;;;;;;;15.80;14.20;;;;;;;9.51;100.00;100372.03;1710115;83;21110;-78
2022/04/24 01:46:56;;;;;;;15.65;14.05;;;;;;;9.50;100.00;100359.97;1710121;83;21098;-78
2022/04/24 01:49:23;;;;;;;15.25;13.72;;;;;;;9.49;100.00;100346.61;1709823;83;22027;-79
2022/04/24 01:51:50;;;;;;;15.05;13.65;;;;;;;9.47;100.00;100344.14;1710156;83;21571;-79
2022/04/24 01:54:18;;;;;;;16.23;14.63;;;;;;;9.45;100.00;100339.52;1710070;83;21034;-79
2022/04/24 01:56:46;;;;;;;14.95;13.53;;;;;;;9.44;100.00;100337.86;1709828;83;21062;-78
2022/04/24 01:59:15;;;;;;;16.40;14.13;;;;;;;9.44;100.00;100328.76;1709848;83;21132;-80
2022/04/24 02:01:43;;;;;;;16.02;14.40;;;;;;;9.45;100.00;100343.41;1710429;83;21094;-84
2022/04/24 02:04:11;;;;;;;15.30;13.83;;;;;;;9.47;100.00;100339.39;1709973;83;21567;-82
2022/04/24 02:06:39;;;;;;;21.10;14.87;;;;;;;9.50;100.00;100337.03;1710302;83;21010;-80
2022/04/24 02:09:08;;;;;;;16.65;14.98;;;;;;;9.51;100.00;100338.69;1709923;83;21038;-79
2022/04/24 02:11:36;;;;;;;15.63;14.03;;;;;;;9.54;100.00;100333.27;1709879;83;21531;-78
2022/04/24 02:14:03;;;;;;;16.35;14.60;;;;;;;9.55;100.00;100336.23;1709827;83;21124;-78
2022/04/24 02:16:30;;;;;;;15.40;13.80;;;;;;;9.55;100.00;100332.33;1710114;83;21078;-77
2022/04/24 02:18:59;;;;;;;15.90;14.23;;;;;;;9.56;100.00;100332.70;1709952;83;21152;-79
2022/04/24 02:21:28;;;;;;;16.57;14.90;;;;;;;9.56;100.00;100327.49;1709929;83;21050;-79
2022/04/24 02:23:56;;;;;;;16.40;14.80;;;;;;;9.54;100.00;100326.29;1709565;83;21286;-78
2022/04/24 02:26:23;;;;;;;15.70;14.10;;;;;;;9.53;100.00;100319.46;1709993;83;21157;-78
2022/04/24 02:28:51;;;;;;;16.67;14.85;;;;;;;9.52;100.00;100319.55;1709418;83;21003;-82
2022/04/24 02:31:19;;;;;;;17.87;15.98;;;;;;;9.49;100.00;100314.61;1710058;83;22180;-79
2022/04/24 02:33:46;;;;;;;18.17;15.35;;;;;;;9.46;100.00;100313.04;1709782;83;21027;-80
2022/04/24 02:36:13;;;;;;;17.15;15.55;;;;;;;9.45;100.00;100318.73;1710090;83;21058;-79
2022/04/24 02:38:42;;;;;;;18.12;16.23;;;;;;;9.44;100.00;100316.25;1709793;83;21078;-78
2022/04/24 02:41:09;;;;;;;19.10;17.17;;;;;;;9.43;100.00;100320.61;1709607;83;21663;-79
2022/04/24 02:43:37;;;;;;;21.40;16.90;;;;;;;9.41;100.00;100320.37;1704445;83;21058;-78
2022/04/24 02:46:05;;;;;;;17.70;16.00;;;;;;;9.40;100.00;100319.55;1712371;82;21029;-77
2022/04/24 02:48:33;;;;;;;18.25;16.45;;;;;;;9.40;100.00;100327.34;1712640;83;21015;-79
2022/04/24 02:51:03;;;;;;;18.82;17.02;;;;;;;9.41;100.00;100329.46;1704655;84;20995;-78
2022/04/24 02:53:31;;;;;;;18.23;16.50;;;;;;;9.39;100.00;100321.79;1712740;83;21019;-81
2022/04/24 02:55:58;;;;;;;18.25;16.37;;;;;;;9.38;100.00;100327.92;1712884;83;21484;-83
2022/04/24 02:58:27;;;;;;;18.12;16.23;;;;;;;9.37;100.00;100331.47;1704800;84;21536;-80
2022/04/24 03:00:56;;;;;;;18.60;16.65;;;;;;;9.37;100.00;100335.36;1704599;83;21011;-77
2022/04/24 03:03:24;;;;;;;17.95;16.05;;;;;;;9.35;100.00;100335.94;1684165;84;21082;-79
2022/04/24 03:05:52;;;;;;;18.10;16.30;;;;;;;9.35;100.00;100332.05;1704478;83;21050;-79
2022/04/24 03:08:22;;;;;;;18.17;16.30;;;;;;;9.35;100.00;100325.55;1704403;84;21082;-79
2022/04/24 03:10:49;;;;;;;19.45;15.93;;;;;;;9.35;100.00;100329.93;1704556;84;21070;-78
2022/04/24 03:13:17;;;;;;;18.57;16.57;;;;;;;9.35;100.00;100322.95;1704803;83;21070;-77
2022/04/24 03:15:46;;;;;;;17.92;15.95;;;;;;;9.35;100.00;100324.73;1703342;83;20955;-78
2022/04/24 03:18:13;;;;;;;18.98;17.07;;;;;;;9.34;100.00;100329.08;1704551;83;21074;-79
2022/04/24 03:20:41;;;;;;;17.62;15.88;;;;;;;9.36;100.00;100330.29;1704391;84;21034;-79
2022/04/24 03:23:08;;;;;;;17.15;15.45;;;;;;;9.38;100.00;100340.08;1704210;84;21533;-77
2022/04/24 03:25:37;;;;;;;17.17;15.38;;;;;;;9.40;100.00;100346.00;1704723;83;21028;-77
2022/04/24 03:28:08;;;;;;;16.12;14.60;;;;;;;9.41;100.00;100352.40;1704474;84;21031;-78
2022/04/24 03:30:36;;;;;;;17.00;15.38;;;;;;;9.44;100.00;100356.53;1701605;84;21026;-80
2022/04/24 03:33:05;;;;;;;17.35;15.53;;;;;;;9.46;100.00;100363.27;1704602;84;21015;-85
2022/04/24 03:35:33;;;;;;;17.37;15.58;;;;;;;9.47;100.00;100366.68;1704530;84;21599;-82
2022/04/24 03:38:00;;;;;;;17.45;15.68;;;;;;;9.47;100.00;100366.23;1704572;83;21026;-79
2022/04/24 03:40:28;;;;;;;16.73;15.13;;;;;;;9.46;100.00;100363.72;1704509;83;21999;-79
2022/04/24 03:42:57;;;;;;;16.73;15.08;;;;;;;9.44;100.00;100363.84;1708808;83;21015;-80
2022/04/24 03:45:25;;;;;;;16.12;14.53;;;;;;;9.42;100.00;100365.72;1712513;83;21146;-78
2022/04/24 03:47:52;;;;;;;15.05;13.65;;;;;;;9.40;100.00;100366.33;1661796;83;21070;-78
2022/04/24 03:50:21;;;;;;;15.90;14.40;;;;;;;9.41;100.00;100367.99;1712706;83;21011;-78
2022/04/24 03:52:48;;;;;;;15.18;13.68;;;;;;;9.42;100.00;100374.82;1712537;83;21175;-77
2022/04/24 03:55:15;;;;;;;15.60;13.80;;;;;;;9.44;100.00;100385.13;1712725;83;20962;-81
2022/04/24 03:57:42;;;;;;;28.95;14.05;;;;;;;9.45;100.00;100377.20;1712367;83;21148;-79
2022/04/24 04:00:12;;;;;;;20.85;15.28;;;;;;;9.46;100.00;100377.56;1712273;83;21058;-78
2022/04/24 04:02:48;;;;;;;17.03;15.40;;;;;;;9.46;100.00;100374.97;1708550;83;21031;-77
2022/04/24 04:05:16;;;;;;;16.95;15.35;;;;;;;9.48;100.00;100382.64;1712438;83;21782;-82
2022/04/24 04:07:44;;;;;;;17.32;15.60;;;;;;;9.47;100.00;100381.83;1712364;83;21097;-82
2022/04/24 04:10:13;;;;;;;17.73;15.38;;;;;;;9.48;100.00;100381.34;1712122;83;21590;-80
2022/04/24 04:12:41;;;;;;;16.40;14.70;;;;;;;9.49;100.00;100383.48;1711741;83;21054;-80
2022/04/24 04:15:10;;;;;;;16.85;15.15;;;;;;;9.51;100.00;100385.02;1712413;83;21042;-79
2022/04/24 04:17:38;;;;;;;16.87;15.28;;;;;;;9.54;100.00;100387.86;1712581;83;21821;-79
2022/04/24 04:20:11;;;;;;;16.67;14.98;;;;;;;9.58;100.00;100386.22;1712452;83;21047;-79
2022/04/24 04:22:51;;;;;;;15.80;14.30;;;;;;;9.63;100.00;100387.99;1707584;83;21018;-79
2022/04/24 04:25:26;;;;;;;14.65;13.00;;;;;;;9.70;100.00;100388.38;1681680;83;21567;-79
2022/04/24 04:27:53;;;;;;;14.83;13.43;;;;;;;9.79;100.00;100387.69;1687526;83;20990;-78
2022/04/24 04:30:22;;;;;;;14.85;13.35;;;;;;;9.87;100.00;100395.38;1712095;83;21011;-78
2022/04/24 04:32:51;;;;;;;15.35;13.88;;;;;;;9.91;100.00;100389.83;1712030;83;21058;-78
2022/04/24 04:35:22;;;;;;;15.00;13.50;;;;;;;9.98;100.00;100388.05;1712106;83;21054;-80
2022/04/24 04:37:48;;;;;;;15.88;13.08;;;;;;;10.04;100.00;100389.72;1708781;83;21689;-77
2022/04/24 04:40:18;;;;;;;14.68;13.28;;;;;;;10.10;100.00;100389.25;1712948;83;21460;-80
2022/04/24 04:42:45;;;;;;;16.12;13.55;;;;;;;10.15;100.00;100391.50;1709384;83;21171;-83
2022/04/24 04:45:12;;;;;;;14.98;13.48;;;;;;;10.20;100.00;100389.36;1704677;84;21189;-78
2022/04/24 04:47:39;;;;;;;14.55;13.10;;;;;;;10.27;100.00;100391.02;1704473;84;21082;-78
2022/04/24 04:50:09;;;;;;;15.15;13.53;;;;;;;10.33;100.00;100393.14;1704059;84;21141;-78
2022/04/24 04:52:37;;;;;;;15.93;14.20;;;;;;;10.40;100.00;100395.65;1704403;84;21026;-78
2022/04/24 04:55:05;;;;;;;18.57;14.73;;;;;;;10.47;100.00;100393.86;1704588;83;21166;-78
2022/04/24 04:57:34;;;;;;;15.35;13.88;;;;;;;10.54;100.00;100397.63;1704633;83;21070;-77
2022/04/24 05:00:05;;;;;;;16.05;14.35;;;;;;;10.60;100.00;100402.38;1704528;83;21325;-78
2022/04/24 05:02:40;;;;;;;15.83;14.40;;;;;;;10.65;100.00;100402.02;1704845;84;21026;-78
2022/04/24 05:05:09;;;;;;;15.70;14.10;;;;;;;10.71;100.00;100401.53;1704579;83;21053;-83
2022/04/24 05:07:38;;;;;;;16.45;14.75;;;;;;;10.77;100.00;100399.73;1704604;84;21121;-77
2022/04/24 05:10:07;;;;;;;16.48;14.78;;;;;;;10.84;100.00;100392.27;1704551;84;21243;-79
2022/04/24 05:12:36;;;;;;;16.55;14.95;;;;;;;10.90;100.00;100386.56;1704239;84;21054;-78
2022/04/24 05:15:09;;;;;;;15.32;13.80;;;;;;;10.99;100.00;100386.29;1684839;84;21071;-78
2022/04/24 05:17:38;;;;;;;16.45;14.45;;;;;;;11.08;100.00;100384.73;1684637;84;21046;-78
2022/04/24 05:20:10;;;;;;;15.20;13.80;;;;;;;11.18;100.00;100379.95;1704499;83;21109;-79
2022/04/24 05:22:40;;;;;;;15.85;14.18;;;;;;;11.28;100.00;100378.72;1704485;83;21066;-81
2022/04/24 05:25:10;;;;;;;16.10;14.50;;;;;;;11.42;100.00;100374.14;1703625;84;21023;-78
2022/04/24 05:27:39;;;;;;;16.15;14.58;;;;;;;11.58;100.00;100373.70;1704733;83;21081;-78
2022/04/24 05:30:09;;;;;;;16.05;14.55;;;;;;;11.77;100.00;100370.38;1704037;83;21034;-78
2022/04/24 05:32:41;;;;;;;15.83;14.43;;;;;;;11.96;100.00;100373.56;1702663;83;21094;-78
2022/04/24 05:35:11;;;;;;;15.35;13.78;;;;;;;12.14;100.00;100372.49;1687342;83;20966;-78
2022/04/24 05:37:40;;;;;;;15.28;13.75;;;;;;;12.35;100.00;100378.15;1707225;84;42424;-79
2022/04/24 05:40:10;;;;;;;15.63;14.23;;;;;;;12.48;100.00;100377.42;1706916;84;21595;-82
2022/04/24 05:42:51;;;;;;;14.58;13.08;;;;;;;12.53;100.00;100375.72;1706979;83;21583;-79
2022/04/24 05:45:19;;;;;;;16.20;13.10;;;;;;;12.56;100.00;100369.75;1706531;82;21178;-78
2022/04/24 05:47:49;;;;;;;15.50;13.95;;;;;;;12.63;100.00;100366.94;1704675;83;21035;-79
2022/04/24 05:50:17;;;;;;;14.53;13.13;;;;;;;12.74;100.00;100366.48;1693772;83;21661;-83
2022/04/24 05:52:44;;;;;;;13.90;12.50;;;;;;;12.84;100.00;100369.09;1702715;83;21090;-82
2022/04/24 05:55:12;;;;;;;14.50;13.20;;;;;;;12.94;100.00;100360.30;1704196;83;21368;-81
2022/04/24 05:57:40;;;;;;;13.72;12.43;;;;;;;13.07;100.00;100361.34;1704429;84;21794;-78
2022/04/24 06:00:12;;;;;;;13.53;12.18;;;;;;;13.19;100.00;100350.25;1704741;83;21082;-78
2022/04/24 06:02:42;;;;;;;13.75;12.35;;;;;;;13.32;100.00;100353.08;1704610;84;21074;-77
2022/04/24 06:05:12;;;;;;;14.98;13.55;;;;;;;13.43;100.00;100350.32;1704517;83;21113;-77
2022/04/24 06:07:41;;;;;;;13.75;12.45;;;;;;;13.53;100.00;100352.44;1704113;83;21512;-77
2022/04/24 06:10:11;;;;;;;14.15;12.05;;;;;;;13.65;100.00;100348.36;1704785;83;21098;-79
2022/04/24 06:12:53;;;;;;;13.65;12.45;;;;;;;13.76;100.00;100345.56;1704939;84;21650;-81
2022/04/24 06:15:25;;;;;;;12.50;11.18;;;;;;;13.86;100.00;100345.05;1704510;83;21027;-77
2022/04/24 06:17:55;;;;;;;13.00;11.75;;;;;;;13.96;100.00;100345.01;1704975;83;21516;-77
2022/04/24 06:20:25;;;;;;;13.27;11.97;;;;;;;14.14;100.00;100347.67;1704837;83;21094;-82
2022/04/24 06:22:57;;;;;;;12.55;11.28;;;;;;;14.14;100.00;100347.67;1704877;84;20999;-78
2022/04/24 06:25:30;;;;;;;11.25;10.25;;;;;;;14.22;100.00;100354.01;1704690;84;21038;-78
2022/04/24 06:28:00;;;;;;;12.00;9.95;;;;;;;14.29;100.00;100348.52;1704235;83;21539;-77
2022/04/24 06:30:30;;;;;;;11.90;10.78;;;;;;;14.38;100.00;100352.86;1712703;82;21054;-77
2022/04/24 06:33:01;;;;;;;14.35;10.53;;;;;;;14.46;100.00;100351.64;1704366;83;21086;-80
2022/04/24 06:35:28;;;;;;;11.70;10.30;;;;;;;14.54;100.00;100346.98;1704994;83;21149;-81
2022/04/24 06:37:56;;;;;;;11.97;10.60;;;;;;;14.64;100.00;100354.31;1704478;83;21807;-78
2022/04/24 06:40:26;;;;;;;11.45;10.25;;;;;;;14.77;100.00;100359.22;1704911;84;21050;-77
2022/04/24 06:43:05;;;;;;;11.27;10.17;;;;;;;14.86;100.00;100357.98;1704885;83;21006;-78
2022/04/24 06:45:38;;;;;;;11.97;10.68;;;;;;;14.93;100.00;100357.72;1704789;83;21651;-77
2022/04/24 06:48:16;;;;;;;10.82;9.73;;;;;;;14.95;100.00;100350.04;1704707;84;21862;-76
2022/04/24 06:50:46;;;;;;;12.65;9.80;;;;;;;14.98;100.00;100344.98;1704359;83;21085;-77
2022/04/24 06:53:18;;;;;;;11.18;9.88;;;;;;;15.04;100.00;100348.30;1704529;83;21140;-78
2022/04/24 06:55:48;;;;;;;10.72;9.70;;;;;;;15.09;100.00;100342.13;1713171;83;21287;-79
2022/04/24 06:58:19;;;;;;;10.55;9.55;;;;;;;15.13;100.00;100335.59;1704748;83;21140;-77
2022/04/24 07:00:48;;;;;;;11.43;9.87;;;;;;;15.19;100.00;100336.79;1705202;83;21546;-77
2022/04/24 07:03:26;;;;;;;10.78;9.68;;;;;;;15.23;100.00;100345.98;1704639;83;21054;-77
2022/04/24 07:05:53;;;;;;;12.70;10.60;;;;;;;15.29;100.00;100345.87;1703555;83;21062;-77
2022/04/24 07:08:21;;;;;;;11.30;10.00;;;;;;;15.38;100.00;100341.02;1704361;83;21445;-82
2022/04/24 07:10:50;;;;;;;10.55;9.55;;;;;;;15.49;100.00;100345.19;1693763;83;21093;-77
2022/04/24 07:13:20;;;;;;;11.22;9.83;;;;;;;15.57;100.00;100333.94;1700836;83;21646;-78
2022/04/24 07:15:49;;;;;;;14.73;10.08;;;;;;;15.65;100.00;100338.39;1704414;83;21133;-77
2022/04/24 07:18:16;;;;;;;13.85;10.45;;;;;;;15.66;100.00;100339.58;1694789;83;21103;-79
2022/04/24 07:20:45;;;;;;;10.03;9.13;;;;;;;15.68;100.00;100338.09;1678751;84;21559;-77
2022/04/24 07:23:13;;;;;;;10.05;9.15;;;;;;;15.68;100.00;100344.16;1654289;85;20963;-78
2022/04/24 07:25:44;;;;;;;12.37;10.13;;;;;;;15.70;100.00;100328.27;1687383;83;21026;-79
2022/04/24 07:28:13;;;;;;;10.88;9.78;;;;;;;15.73;100.00;100337.12;1680281;84;21152;-78
2022/04/24 07:30:42;;;;;;;11.25;10.15;;;;;;;15.78;100.00;100334.88;1698655;83;21006;-77
2022/04/24 07:33:11;;;;;;;11.05;9.93;;;;;;;15.84;100.00;100333.44;1688202;83;21161;-77
2022/04/24 07:35:41;;;;;;;10.10;9.10;;;;;;;15.92;100.00;100329.53;1684577;84;21126;-80
2022/04/24 07:38:08;;;;;;;10.28;9.33;;;;;;;16.02;100.00;100330.24;1683765;85;21068;-81
2022/04/24 07:40:41;;;;;;;11.50;10.10;;;;;;;16.12;100.00;100328.80;1681764;84;21643;-78
2022/04/24 07:43:13;;;;;;;11.65;10.00;;;;;;;16.21;100.00;100328.35;1682928;83;21072;-80
2022/04/24 07:45:49;;;;;;;10.58;9.50;;;;;;;16.31;100.00;100330.84;1718616;81;21027;-78
2022/04/24 07:48:18;;;;;;;10.18;9.18;;;;;;;16.43;100.00;100331.36;1684540;84;21025;-78
2022/04/24 07:50:49;;;;;;;10.88;9.35;;;;;;;16.50;100.00;100333.67;1770224;81;21724;-79
2022/04/24 07:53:19;;;;;;;11.30;9.50;;;;;;;16.58;100.00;100327.12;1769712;80;28233;-77
2022/04/24 07:55:49;;;;;;;10.88;9.78;;;;;;;16.67;100.00;100325.31;1770379;81;21069;-77
2022/04/24 07:58:17;;;;;;;10.72;9.73;;;;;;;16.74;100.00;100328.97;1767874;80;21094;-81
2022/04/24 08:00:45;;;;;;;11.12;9.40;;;;;;;16.79;100.00;100325.81;1700845;84;21016;-78
2022/04/24 08:03:15;;;;;;;9.83;8.88;;;;;;;16.84;100.00;100328.80;1688953;83;21151;-81
2022/04/24 08:05:48;;;;;;;10.72;9.63;;;;;;;16.90;100.00;100333.39;1701243;83;21791;-78
2022/04/24 08:08:19;;;;;;;11.30;10.18;;;;;;;16.99;100.00;100333.77;1742020;82;21033;-78
2022/04/24 08:10:52;;;;;;;12.18;9.75;;;;;;;17.09;100.00;100330.16;1742290;82;21073;-81
2022/04/24 08:13:22;;;;;;;10.88;9.60;;;;;;;17.19;100.00;100336.05;1701158;83;21015;-78
2022/04/24 08:15:50;;;;;;;10.28;9.30;;;;;;;17.25;100.00;100331.45;1689217;84;21140;-78
2022/04/24 08:18:20;;;;;;;10.50;9.50;;;;;;;17.25;100.00;100334.09;1744816;81;21062;-81
2022/04/24 08:20:49;;;;;;;10.50;9.45;;;;;;;17.28;100.00;100334.25;1769519;80;21089;-79
2022/04/24 08:23:17;;;;;;;11.33;9.95;;;;;;;17.33;100.00;100330.13;1769855;80;21077;-78
2022/04/24 08:25:47;;;;;;;11.68;10.03;;;;;;;17.39;100.00;100334.39;1743941;80;21202;-81
2022/04/24 08:28:15;;;;;;;15.15;10.15;;;;;;;17.40;100.00;100328.95;1769167;80;21590;-79
2022/04/24 08:30:46;;;;;;;10.65;9.55;;;;;;;17.40;100.00;100328.14;1769308;80;21105;-77
2022/04/24 08:33:15;;;;;;;10.50;9.47;;;;;;;17.40;100.00;100318.93;1746032;81;21062;-77
2022/04/24 08:35:43;;;;;;;10.20;9.30;;;;;;;17.44;100.00;100318.43;1700949;82;21081;-81
2022/04/24 08:38:12;;;;;;;10.45;9.15;;;;;;;17.46;100.00;100323.52;1688630;83;21077;-77
2022/04/24 08:40:40;;;;;;;12.23;9.98;;;;;;;17.37;100.00;100318.78;1741552;81;21165;-85
2022/04/24 08:43:08;;;;;;;10.08;9.05;;;;;;;17.26;100.00;100317.31;1697729;82;21594;-77
2022/04/24 08:45:41;;;;;;;10.48;8.50;;;;;;;17.26;100.00;100323.90;1709369;80;21476;-82
2022/04/24 08:48:10;;;;;;;9.38;8.25;;;;;;;17.36;100.00;100321.08;1771883;80;20995;-78
2022/04/24 08:50:39;;;;;;;10.18;9.10;;;;;;;17.49;100.00;100323.20;1771857;80;21113;-78
2022/04/24 08:53:09;;;;;;;10.08;8.10;;;;;;;17.58;100.00;100319.56;1770166;80;21225;-78
2022/04/24 08:55:39;;;;;;;8.88;7.78;;;;;;;17.70;100.00;100328.40;1752841;81;21601;-79
2022/04/24 08:58:08;;;;;;;9.80;8.60;;;;;;;17.79;100.00;100322.13;1752484;80;20997;-78
2022/04/24 09:00:35;;;;;;;8.85;7.85;;;;;;;17.81;100.00;100328.05;1752697;81;21044;-78
2022/04/24 09:03:04;;;;;;;9.43;7.90;;;;;;;17.84;100.00;100321.61;1752833;80;22229;-78
2022/04/24 09:05:32;;;;;;;9.25;8.20;;;;;;;17.92;100.00;100318.95;1752793;80;21973;-77
2022/04/24 09:08:12;;;;;;;9.95;8.90;;;;;;;18.04;100.00;100316.28;1752183;80;21037;-79
2022/04/24 09:10:55;;;;;;;10.20;8.50;;;;;;;18.08;100.00;100313.64;1752915;81;21025;-79
2022/04/24 09:14:14;;;;;;;8.78;7.87;;;;;;;18.07;100.00;100315.95;1763599;80;21096;-77
2022/04/24 09:16:04;;;;;;;10.55;9.28;;;;;;;18.07;100.00;100312.00;1751302;80;21045;-78
2022/04/24 09:18:40;;;;;;;10.18;9.18;;;;;;;18.13;100.00;100317.08;1698474;83;21122;-82
2022/04/24 09:21:13;;;;;;;11.10;9.93;;;;;;;18.12;100.00;100315.44;1693454;83;21048;-78
2022/04/24 09:23:42;;;;;;;10.23;9.23;;;;;;;18.07;100.00;100312.47;1693516;83;21074;-78
2022/04/24 09:26:16;;;;;;;12.20;10.10;;;;;;;18.05;100.00;100314.48;1715581;81;21023;-79
2022/04/24 09:28:44;;;;;;;12.20;11.08;;;;;;;18.03;100.00;100310.69;1727172;81;21130;-80
2022/04/24 09:31:11;;;;;;;15.95;11.25;;;;;;;18.03;100.00;100316.46;1713857;83;21102;-79
2022/04/24 09:33:42;;;;;;;13.88;11.90;;;;;;;18.05;100.00;100320.56;1713957;83;21063;-78
2022/04/24 09:36:13;;;;;;;;;;;;;;;18.06;100.00;100325.34;1716609;83;21546;-79
2022/04/24 09:38:43;;;;;;;20.72;18.30;;;;;;;18.10;100.00;100324.00;1714326;83;20438;-78
2022/04/24 09:41:20;;;;;;;16.87;13.10;;;;;;;18.15;100.00;100326.92;1714717;83;21050;-78
2022/04/24 09:43:49;;;;;;;19.23;14.53;;;;;;;18.23;100.00;100327.40;1713814;83;21279;-79
2022/04/24 09:46:30;;;;;;;24.70;21.25;;;;;;;18.26;100.00;100318.65;1701242;83;21054;-79
2022/04/24 09:49:01;;;;;;;61.88;47.60;;;;;;;18.30;100.00;100323.08;1698397;83;21564;-83
2022/04/24 09:51:31;;;;;;;27.65;21.45;;;;;;;18.29;100.00;100323.58;1698893;83;21024;-78
2022/04/24 09:54:00;;;;;;;17.57;15.68;;;;;;;18.29;100.00;100327.54;1676870;84;21026;-78
2022/04/24 09:56:31;;;;;;;14.80;13.30;;;;;;;18.27;100.00;100324.25;1748432;81;21564;-79
2022/04/24 09:59:00;;;;;;;16.93;14.13;;;;;;;18.22;100.00;100326.59;1760212;80;21050;-79
2022/04/24 10:01:27;;;;;;;17.80;15.30;;;;;;;18.08;100.00;100329.45;1761179;80;22167;-79
2022/04/24 10:03:57;;;;;;;16.52;14.05;;;;;;;17.97;100.00;100330.66;1708403;83;21043;-79
2022/04/24 10:06:26;;;;;;;19.27;14.75;;;;;;;17.92;100.00;100323.70;1704776;83;21576;-78
2022/04/24 10:08:54;;;;;;;15.05;13.40;;;;;;;17.88;100.00;100332.95;1704286;83;21645;-78
2022/04/24 10:11:22;;;;;;;15.40;13.55;;;;;;;17.84;100.00;100323.73;1704572;83;22025;-77
2022/04/24 10:13:55;;;;;;;17.00;14.65;;;;;;;17.73;100.00;100325.44;1703916;83;21030;-83
2022/04/24 10:17:12;;;;;;;18.23;16.32;;;;;;;17.66;100.00;100329.23;1701563;83;21622;-79
2022/04/24 10:20:16;;;;;;;18.10;16.20;;;;;;;17.68;100.00;100325.10;1702041;84;21106;-79
2022/04/24 10:22:47;;;;;;;17.02;15.35;;;;;;;17.74;100.00;100323.94;1704549;84;21107;-79
2022/04/24 10:25:16;;;;;;;20.02;16.75;;;;;;;17.82;100.00;100329.19;1700383;83;21081;-78
2022/04/24 10:27:47;;;;;;;18.50;14.98;;;;;;;17.88;100.00;100329.48;1705024;83;21050;-78
2022/04/24 10:30:25;;;;;;;18.23;15.78;;;;;;;17.87;100.00;100332.63;1704661;83;21647;-77
2022/04/24 10:33:18;;;;;;;16.52;14.83;;;;;;;17.88;100.00;100332.95;1704793;84;21043;-79
2022/04/24 10:35:55;;;;;;;23.52;18.15;;;;;;;17.91;100.00;100331.79;1704854;84;21152;-78
2022/04/24 10:38:24;;;;;;;33.83;27.95;;;;;;;17.90;100.00;100330.98;1703303;84;21059;-78
2022/04/24 10:41:07;;;;;;;20.20;17.98;;;;;;;17.93;100.00;100330.62;1704816;83;21015;-79
2022/04/24 10:43:40;;;;;;;16.50;14.73;;;;;;;17.96;100.00;100335.59;1704307;83;21046;-79
2022/04/24 10:46:21;;;;;;;24.12;20.30;;;;;;;17.97;100.00;100328.02;1709147;83;21053;-78
2022/04/24 10:48:49;;;;;;;16.45;14.63;;;;;;;17.97;100.00;100333.28;1707517;83;21126;-81
2022/04/24 10:51:34;;;;;;;15.72;14.18;;;;;;;17.97;100.00;100331.97;1712410;83;21089;-82
2022/04/24 10:54:08;;;;;;;16.70;14.58;;;;;;;18.02;100.00;100341.16;1712277;83;21109;-79
2022/04/24 10:56:38;;;;;;;17.75;15.13;;;;;;;18.03;100.00;100341.48;1709386;83;21094;-79
2022/04/24 10:59:12;;;;;;;15.08;13.65;;;;;;;17.98;100.00;100344.63;1712415;83;21002;-79
2022/04/24 11:01:48;;;;;;;18.37;13.58;;;;;;;17.96;100.00;100341.34;1704935;83;22586;-79
2022/04/24 11:04:18;;;;;;;14.85;11.93;;;;;;;18.00;100.00;100338.70;1711861;83;21015;-78
2022/04/24 11:07:04;;;;;;;13.90;11.30;;;;;;;18.13;100.00;100344.75;1704049;83;21581;-77
2022/04/24 11:09:36;;;;;;;13.43;11.85;;;;;;;18.33;100.00;100338.55;1669473;85;21053;-77
2022/04/24 11:12:07;;;;;;;13.05;11.75;;;;;;;18.62;100.00;100338.87;1669568;85;20994;-81
2022/04/24 11:14:37;;;;;;;15.55;12.55;;;;;;;18.86;100.00;100333.91;1669463;85;21083;-80
2022/04/24 11:17:07;;;;;;;16.85;13.10;;;;;;;19.03;100.00;100332.83;1669477;85;21041;-78
2022/04/24 11:19:39;;;;;;;18.10;12.03;;;;;;;19.17;100.00;100327.27;1669904;85;21182;-78